createdAt,value
2017-04-27T21:40:44.424Z,27.42
2017-04-27T21:43:12.793Z,28.92
2017-04-27T21:45:41.169Z,28.20
2017-04-27T21:51:02.861Z,27.18
2017-04-27T21:53:41.032Z,29.00
2017-04-27T21:59:51.012Z,25.92
2017-04-27T22:02:39.447Z,23.50
2017-04-27T22:07:59.621Z,24.26
2017-04-27T22:10:26.552Z,20.22
2017-04-27T22:14:28.006Z,22.12
2017-04-27T22:16:56.606Z,19.78
2017-04-27T22:19:41.657Z,19.24
2017-04-27T22:25:04.672Z,19.78
2017-04-27T22:27:40.865Z,23.26
2017-04-27T22:30:09.276Z,27.02
2017-04-27T22:32:41.364Z,31.66
2017-04-27T22:35:09.775Z,33.12
2017-04-27T22:37:41.485Z,33.94
2017-04-27T22:40:09.893Z,34.74
2017-04-27T22:42:41.604Z,36.04
2017-04-27T22:45:10.745Z,36.90
2017-04-27T22:47:42.669Z,39.22
2017-04-27T22:50:11.842Z,40.34
2017-04-27T22:52:40.845Z,40.54
2017-04-27T22:55:09.233Z,37.92
2017-04-27T22:57:42.049Z,38.28
2017-04-27T23:00:10.444Z,42.06
2017-04-27T23:02:42.398Z,41.72
2017-04-27T23:05:10.765Z,40.16
2017-04-27T23:07:42.624Z,39.26
2017-04-27T23:13:04.656Z,40.64
2017-04-27T23:15:40.983Z,38.88
2017-04-27T23:23:42.196Z,38.86
2017-04-27T23:31:54.251Z,37.62
2017-04-27T23:34:28.701Z,38.64
2017-04-27T23:36:57.114Z,36.24
2017-04-27T23:39:26.231Z,36.94
2017-04-27T23:41:54.600Z,39.26
2017-04-27T23:44:23.753Z,37.06
2017-04-27T23:46:52.141Z,34.58
2017-04-27T23:49:20.553Z,37.12
2017-04-27T23:51:48.961Z,34.76
2017-04-27T23:54:27.915Z,34.36
2017-04-27T23:56:56.349Z,34.64
2017-04-27T23:59:24.720Z,35.36
